sensor_id;sensor_type;location;lat;lon;timestamp;pressure;altitude;pressure_sealevel;temperature;humidity
42519;BME280;28147;47.520;18.920;2023-02-28T00:02:52;99420.94;;;3.55;42.82
42519;BME280;28147;47.520;18.920;2023-02-28T00:10:14;99440.19;;;3.48;42.86
42519;BME280;28147;47.520;18.920;2023-02-28T00:21:43;99453.19;;;3.57;42.90
42519;BME280;28147;47.520;18.920;2023-02-28T03:54:57;99484.03;;;3.23;42.88
42519;BME280;28147;47.520;18.920;2023-02-28T04:06:06;99477.53;;;3.59;42.31
42519;BME280;28147;47.520;18.920;2023-02-28T04:08:33;99472.06;;;3.45;42.44
42519;BME280;28147;47.520;18.920;2023-02-28T05:50:47;99483.09;;;3.40;42.91
42519;BME280;28147;47.520;18.920;2023-02-28T05:56:19;99493.31;;;3.51;42.71
42519;BME280;28147;47.520;18.920;2023-02-28T06:13:13;99508.00;;;3.62;42.52
42519;BME280;28147;47.520;18.920;2023-02-28T06:15:39;99494.69;;;3.80;42.87
42519;BME280;28147;47.520;18.920;2023-02-28T06:21:22;99499.66;;;3.83;42.76
42519;BME280;28147;47.520;18.920;2023-02-28T06:24:09;99517.09;;;3.84;42.24
42519;BME280;28147;47.520;18.920;2023-02-28T06:32:35;99525.69;;;3.94;42.47
42519;BME280;28147;47.520;18.920;2023-02-28T06:35:01;99517.78;;;4.10;42.75
42519;BME280;28147;47.520;18.920;2023-02-28T06:50:12;99523.88;;;4.44;41.59
42519;BME280;28147;47.520;18.920;2023-02-28T06:52:38;99529.28;;;4.42;41.17
42519;BME280;28147;47.520;18.920;2023-02-28T06:55:53;99527.63;;;4.66;41.53
42519;BME280;28147;47.520;18.920;2023-02-28T07:00:34;99535.25;;;5.16;39.90
42519;BME280;28147;47.520;18.920;2023-02-28T07:03:15;99519.13;;;5.03;40.17
42519;BME280;28147;47.520;18.920;2023-02-28T07:05:40;99531.22;;;4.81;39.77
42519;BME280;28147;47.520;18.920;2023-02-28T07:08:06;99515.69;;;4.94;39.28
42519;BME280;28147;47.520;18.920;2023-02-28T07:10:43;99534.06;;;4.30;40.29
42519;BME280;28147;47.520;18.920;2023-02-28T07:14:29;99536.13;;;5.00;40.27
42519;BME280;28147;47.520;18.920;2023-02-28T07:18:10;99540.13;;;5.35;39.31
42519;BME280;28147;47.520;18.920;2023-02-28T07:20:36;99545.19;;;5.45;39.15
42519;BME280;28147;47.520;18.920;2023-02-28T07:23:01;99545.16;;;5.53;38.14
42519;BME280;28147;47.520;18.920;2023-02-28T07:25:28;99544.41;;;5.68;38.45
42519;BME280;28147;47.520;18.920;2023-02-28T07:28:17;99523.19;;;5.92;38.47
42519;BME280;28147;47.520;18.920;2023-02-28T07:30:43;99541.38;;;6.33;37.99
42519;BME280;28147;47.520;18.920;2023-02-28T07:43:42;99551.59;;;6.74;36.11
42519;BME280;28147;47.520;18.920;2023-02-28T07:48:00;99558.72;;;6.88;36.63
42519;BME280;28147;47.520;18.920;2023-02-28T07:53:12;99552.53;;;6.96;36.18
42519;BME280;28147;47.520;18.920;2023-02-28T07:55:37;99556.97;;;6.80;35.65
42519;BME280;28147;47.520;18.920;2023-02-28T08:03:03;99548.50;;;6.85;35.63
42519;BME280;28147;47.520;18.920;2023-02-28T08:05:28;99555.19;;;7.11;35.29
42519;BME280;28147;47.520;18.920;2023-02-28T08:07:55;99549.69;;;7.42;35.10
42519;BME280;28147;47.520;18.920;2023-02-28T08:10:20;99553.69;;;7.52;34.86
42519;BME280;28147;47.520;18.920;2023-02-28T08:13:06;99553.38;;;7.77;34.24
42519;BME280;28147;47.520;18.920;2023-02-28T08:17:40;99545.81;;;7.74;34.11
42519;BME280;28147;47.520;18.920;2023-02-28T08:20:06;99549.19;;;8.04;34.70
42519;BME280;28147;47.520;18.920;2023-02-28T08:22:32;99549.75;;;8.64;34.05
42519;BME280;28147;47.520;18.920;2023-02-28T08:24:57;99555.31;;;8.47;34.20
42519;BME280;28147;47.520;18.920;2023-02-28T08:27:23;99547.59;;;9.09;32.94
42519;BME280;28147;47.520;18.920;2023-02-28T08:29:48;99551.91;;;9.51;32.32
42519;BME280;28147;47.520;18.920;2023-02-28T08:32:13;99538.88;;;9.63;32.30
42519;BME280;28147;47.520;18.920;2023-02-28T08:34:39;99540.97;;;9.81;32.36
42519;BME280;28147;47.520;18.920;2023-02-28T08:37:05;99539.38;;;9.99;32.41
42519;BME280;28147;47.520;18.920;2023-02-28T08:39:34;99539.47;;;10.46;31.59
42519;BME280;28147;47.520;18.920;2023-02-28T08:41:59;99547.63;;;10.24;30.94
42519;BME280;28147;47.520;18.920;2023-02-28T08:44:24;99559.00;;;9.92;31.55
42519;BME280;28147;47.520;18.920;2023-02-28T08:46:50;99543.63;;;9.74;31.79
42519;BME280;28147;47.520;18.920;2023-02-28T08:49:15;99551.38;;;9.75;30.47
42519;BME280;28147;47.520;18.920;2023-02-28T08:51:41;99550.47;;;9.48;31.21
42519;BME280;28147;47.520;18.920;2023-02-28T08:54:11;99543.44;;;9.82;31.09
42519;BME280;28147;47.520;18.920;2023-02-28T08:56:45;99541.81;;;8.98;31.82
42519;BME280;28147;47.520;18.920;2023-02-28T08:59:11;99541.88;;;10.21;31.32
42519;BME280;28147;47.520;18.920;2023-02-28T09:01:36;99537.81;;;10.71;30.74
42519;BME280;28147;47.520;18.920;2023-02-28T09:04:02;99546.41;;;11.07;30.48
42519;BME280;28147;47.520;18.920;2023-02-28T09:06:27;99546.06;;;11.48;29.63
42519;BME280;28147;47.520;18.920;2023-02-28T09:08:56;99544.53;;;11.14;30.08
42519;BME280;28147;47.520;18.920;2023-02-28T09:11:23;99552.13;;;9.56;31.72
42519;BME280;28147;47.520;18.920;2023-02-28T09:13:48;99541.88;;;10.21;31.93
42519;BME280;28147;47.520;18.920;2023-02-28T09:16:15;99544.81;;;10.46;31.18
42519;BME280;28147;47.520;18.920;2023-02-28T09:18:41;99551.91;;;9.10;31.80
42519;BME280;28147;47.520;18.920;2023-02-28T09:21:09;99546.56;;;8.75;32.89
42519;BME280;28147;47.520;18.920;2023-02-28T09:23:35;99549.34;;;9.84;31.25
42519;BME280;28147;47.520;18.920;2023-02-28T09:26:03;99549.63;;;10.09;31.64
42519;BME280;28147;47.520;18.920;2023-02-28T09:28:28;99546.22;;;10.75;30.69
42519;BME280;28147;47.520;18.920;2023-02-28T09:30:54;99545.59;;;10.86;29.80
42519;BME280;28147;47.520;18.920;2023-02-28T09:33:21;99549.34;;;11.43;30.62
42519;BME280;28147;47.520;18.920;2023-02-28T09:35:50;99552.56;;;10.41;30.14
42519;BME280;28147;47.520;18.920;2023-02-28T09:38:17;99549.81;;;11.27;29.83
42519;BME280;28147;47.520;18.920;2023-02-28T09:40:50;99549.06;;;11.65;29.99
42519;BME280;28147;47.520;18.920;2023-02-28T09:43:18;99553.19;;;11.61;29.37
42519;BME280;28147;47.520;18.920;2023-02-28T09:45:59;99560.91;;;10.18;30.72
42519;BME280;28147;47.520;18.920;2023-02-28T09:48:33;99548.34;;;8.96;32.76
42519;BME280;28147;47.520;18.920;2023-02-28T09:52:30;99553.72;;;9.50;32.05
42519;BME280;28147;47.520;18.920;2023-02-28T09:55:20;99554.16;;;9.13;32.82
42519;BME280;28147;47.520;18.920;2023-02-28T09:57:48;99554.19;;;8.85;33.06
42519;BME280;28147;47.520;18.920;2023-02-28T10:08:21;99544.81;;;10.66;31.55
42519;BME280;28147;47.520;18.920;2023-02-28T10:10:53;99543.72;;;11.07;30.67
42519;BME280;28147;47.520;18.920;2023-02-28T10:13:31;99540.97;;;9.87;31.86
42519;BME280;28147;47.520;18.920;2023-02-28T10:16:05;99538.88;;;8.59;33.14
42519;BME280;28147;47.520;18.920;2023-02-28T10:18:43;99538.53;;;8.19;34.29
42519;BME280;28147;47.520;18.920;2023-02-28T10:21:24;99539.66;;;8.81;34.46
42519;BME280;28147;47.520;18.920;2023-02-28T10:23:53;99546.44;;;9.66;33.34
42519;BME280;28147;47.520;18.920;2023-02-28T10:26:21;99536.53;;;10.14;32.37
42519;BME280;28147;47.520;18.920;2023-02-28T10:28:51;99536.38;;;10.29;32.52
42519;BME280;28147;47.520;18.920;2023-02-28T10:31:19;99539.19;;;9.40;34.27
42519;BME280;28147;47.520;18.920;2023-02-28T10:34:12;99544.22;;;8.93;35.15
42519;BME280;28147;47.520;18.920;2023-02-28T10:36:38;99536.59;;;10.74;33.95
42519;BME280;28147;47.520;18.920;2023-02-28T10:43:33;99522.28;;;9.13;35.17
42519;BME280;28147;47.520;18.920;2023-02-28T10:46:19;99511.97;;;8.62;34.26
42519;BME280;28147;47.520;18.920;2023-02-28T10:49:04;99507.94;;;10.43;33.87
42519;BME280;28147;47.520;18.920;2023-02-28T10:54:05;99501.47;;;11.17;31.63
42519;BME280;28147;47.520;18.920;2023-02-28T10:56:31;99506.09;;;12.18;31.33
42519;BME280;28147;47.520;18.920;2023-02-28T11:01:39;99498.66;;;10.99;29.91
42519;BME280;28147;47.520;18.920;2023-02-28T11:07:02;99508.31;;;10.13;32.49
42519;BME280;28147;47.520;18.920;2023-02-28T11:09:34;99508.09;;;10.02;33.59
42519;BME280;28147;47.520;18.920;2023-02-28T11:12:02;99511.34;;;9.90;33.60
42519;BME280;28147;47.520;18.920;2023-02-28T11:14:51;99511.09;;;9.24;35.44
42519;BME280;28147;47.520;18.920;2023-02-28T11:17:28;99509.44;;;9.71;34.30
42519;BME280;28147;47.520;18.920;2023-02-28T11:19:59;99509.50;;;9.91;33.43
42519;BME280;28147;47.520;18.920;2023-02-28T11:22:30;99489.88;;;10.78;34.16
42519;BME280;28147;47.520;18.920;2023-02-28T11:24:59;99500.88;;;11.02;33.62
42519;BME280;28147;47.520;18.920;2023-02-28T11:27:42;99501.78;;;10.56;32.69
42519;BME280;28147;47.520;18.920;2023-02-28T11:32:53;99494.97;;;9.25;33.96
42519;BME280;28147;47.520;18.920;2023-02-28T11:37:55;99490.91;;;10.70;33.04
42519;BME280;28147;47.520;18.920;2023-02-28T11:51:28;99481.41;;;11.01;32.77
42519;BME280;28147;47.520;18.920;2023-02-28T11:56:54;99485.41;;;10.26;32.89
42519;BME280;28147;47.520;18.920;2023-02-28T12:07:25;99479.63;;;9.21;35.73
42519;BME280;28147;47.520;18.920;2023-02-28T12:10:20;99474.78;;;9.38;35.28
42519;BME280;28147;47.520;18.920;2023-02-28T12:26:41;99461.63;;;8.25;36.65
42519;BME280;28147;47.520;18.920;2023-02-28T12:31:39;99446.81;;;9.00;36.65
42519;BME280;28147;47.520;18.920;2023-02-28T12:34:11;99447.19;;;9.32;36.61
42519;BME280;28147;47.520;18.920;2023-02-28T12:36:37;99444.56;;;9.52;35.23
42519;BME280;28147;47.520;18.920;2023-02-28T12:39:08;99447.38;;;8.83;36.82
42519;BME280;28147;47.520;18.920;2023-02-28T12:41:46;99445.38;;;8.91;36.56
42519;BME280;28147;47.520;18.920;2023-02-28T12:44:21;99438.28;;;9.12;36.07
42519;BME280;28147;47.520;18.920;2023-02-28T12:46:51;99437.22;;;8.99;36.55
42519;BME280;28147;47.520;18.920;2023-02-28T12:52:10;99445.09;;;8.80;36.66
42519;BME280;28147;47.520;18.920;2023-02-28T12:54:52;99427.59;;;8.29;38.03
42519;BME280;28147;47.520;18.920;2023-02-28T12:57:33;99433.22;;;9.17;37.45
42519;BME280;28147;47.520;18.920;2023-02-28T13:00:10;99423.31;;;8.91;36.35
42519;BME280;28147;47.520;18.920;2023-02-28T13:03:16;99424.44;;;9.23;36.52
42519;BME280;28147;47.520;18.920;2023-02-28T13:06:14;99433.69;;;9.34;36.58
42519;BME280;28147;47.520;18.920;2023-02-28T13:09:08;99416.81;;;9.00;36.77
42519;BME280;28147;47.520;18.920;2023-02-28T13:11:48;99435.84;;;8.69;36.97
42519;BME280;28147;47.520;18.920;2023-02-28T13:14:28;99429.47;;;9.05;37.35
42519;BME280;28147;47.520;18.920;2023-02-28T13:22:55;99423.00;;;9.14;36.98
42519;BME280;28147;47.520;18.920;2023-02-28T13:28:00;99421.09;;;8.94;36.95
42519;BME280;28147;47.520;18.920;2023-02-28T13:38:41;99412.94;;;8.61;38.10
42519;BME280;28147;47.520;18.920;2023-02-28T13:49:26;99415.66;;;8.74;37.13
42519;BME280;28147;47.520;18.920;2023-02-28T14:05:16;99409.44;;;7.19;40.35
42519;BME280;28147;47.520;18.920;2023-02-28T14:07:52;99400.47;;;7.56;40.38
42519;BME280;28147;47.520;18.920;2023-02-28T14:17:59;99391.63;;;7.92;39.41
42519;BME280;28147;47.520;18.920;2023-02-28T14:20:29;99395.09;;;8.20;38.96
42519;BME280;28147;47.520;18.920;2023-02-28T14:31:13;99393.00;;;8.37;39.21
42519;BME280;28147;47.520;18.920;2023-02-28T14:36:26;99381.59;;;8.43;39.44
42519;BME280;28147;47.520;18.920;2023-02-28T14:38:57;99386.06;;;7.87;39.32
42519;BME280;28147;47.520;18.920;2023-02-28T14:44:00;99375.75;;;7.98;39.95
42519;BME280;28147;47.520;18.920;2023-02-28T14:46:37;99376.97;;;7.96;40.16
42519;BME280;28147;47.520;18.920;2023-02-28T14:49:07;99380.53;;;7.82;40.59
42519;BME280;28147;47.520;18.920;2023-02-28T14:51:37;99376.03;;;7.82;40.36
42519;BME280;28147;47.520;18.920;2023-02-28T14:54:03;99379.44;;;7.76;39.97
42519;BME280;28147;47.520;18.920;2023-02-28T14:56:37;99388.69;;;8.08;40.14
42519;BME280;28147;47.520;18.920;2023-02-28T14:59:04;99388.63;;;7.73;40.41
42519;BME280;28147;47.520;18.920;2023-02-28T15:08:21;99393.19;;;8.08;39.91
42519;BME280;28147;47.520;18.920;2023-02-28T15:13:42;99400.34;;;8.14;39.86
42519;BME280;28147;47.520;18.920;2023-02-28T15:21:22;99401.66;;;8.24;39.32
42519;BME280;28147;47.520;18.920;2023-02-28T15:26:21;99402.91;;;8.00;39.61
42519;BME280;28147;47.520;18.920;2023-02-28T15:30:30;99399.94;;;8.38;39.78
42519;BME280;28147;47.520;18.920;2023-02-28T15:33:52;99396.63;;;8.36;39.28
42519;BME280;28147;47.520;18.920;2023-02-28T15:38:52;99389.19;;;8.25;39.07
42519;BME280;28147;47.520;18.920;2023-02-28T15:46:27;99375.59;;;8.07;40.30
42519;BME280;28147;47.520;18.920;2023-02-28T15:58:13;99375.88;;;8.12;40.13
42519;BME280;28147;47.520;18.920;2023-02-28T16:00:39;99374.69;;;7.93;40.50
42519;BME280;28147;47.520;18.920;2023-02-28T16:09:52;99379.72;;;7.60;41.37
42519;BME280;28147;47.520;18.920;2023-02-28T16:12:20;99387.53;;;7.68;41.36
42519;BME280;28147;47.520;18.920;2023-02-28T16:16:30;99399.19;;;7.95;40.56
42519;BME280;28147;47.520;18.920;2023-02-28T16:24:29;99397.84;;;8.05;40.81
42519;BME280;28147;47.520;18.920;2023-02-28T16:34:20;99394.22;;;7.85;41.35
42519;BME280;28147;47.520;18.920;2023-02-28T16:42:24;99403.38;;;7.03;43.62
42519;BME280;28147;47.520;18.920;2023-02-28T16:44:51;99410.59;;;6.95;44.03
42519;BME280;28147;47.520;18.920;2023-02-28T16:56:25;99425.56;;;7.02;44.69
42519;BME280;28147;47.520;18.920;2023-02-28T17:05:06;99425.94;;;6.70;45.16
42519;BME280;28147;47.520;18.920;2023-02-28T18:56:23;99450.59;;;7.36;46.61
42519;BME280;28147;47.520;18.920;2023-02-28T19:37:38;99457.75;;;7.21;47.19
42519;BME280;28147;47.520;18.920;2023-02-28T20:33:17;99454.25;;;7.35;47.49
42519;BME280;28147;47.520;18.920;2023-02-28T20:35:43;99454.34;;;7.27;47.47
42519;BME280;28147;47.520;18.920;2023-02-28T20:38:38;99445.00;;;7.10;47.28
42519;BME280;28147;47.520;18.920;2023-02-28T20:43:13;99440.25;;;7.20;47.45
42519;BME280;28147;47.520;18.920;2023-02-28T20:45:38;99440.78;;;7.15;47.25
42519;BME280;28147;47.520;18.920;2023-02-28T20:51:37;99451.56;;;6.99;47.96
42519;BME280;28147;47.520;18.920;2023-02-28T20:55:30;99457.41;;;7.24;47.17
42519;BME280;28147;47.520;18.920;2023-02-28T20:59:14;99458.94;;;7.18;47.38
42519;BME280;28147;47.520;18.920;2023-02-28T21:01:39;99451.81;;;7.19;47.56
42519;BME280;28147;47.520;18.920;2023-02-28T21:04:07;99457.16;;;7.40;47.41
42519;BME280;28147;47.520;18.920;2023-02-28T21:08:13;99447.25;;;7.27;47.15
42519;BME280;28147;47.520;18.920;2023-02-28T21:10:39;99445.78;;;7.25;47.48
42519;BME280;28147;47.520;18.920;2023-02-28T21:13:04;99448.69;;;7.30;46.80
42519;BME280;28147;47.520;18.920;2023-02-28T21:15:29;99445.22;;;7.29;46.74
42519;BME280;28147;47.520;18.920;2023-02-28T21:17:55;99444.94;;;7.39;46.83
42519;BME280;28147;47.520;18.920;2023-02-28T21:20:20;99449.00;;;7.20;47.28
42519;BME280;28147;47.520;18.920;2023-02-28T21:22:57;99446.34;;;7.20;47.82
42519;BME280;28147;47.520;18.920;2023-02-28T21:25:49;99438.06;;;7.09;47.89
42519;BME280;28147;47.520;18.920;2023-02-28T21:28:15;99433.38;;;7.11;47.93
42519;BME280;28147;47.520;18.920;2023-02-28T21:30:40;99432.97;;;6.92;48.30
42519;BME280;28147;47.520;18.920;2023-02-28T21:33:06;99435.34;;;7.02;48.11
42519;BME280;28147;47.520;18.920;2023-02-28T21:35:31;99435.22;;;7.10;48.17
42519;BME280;28147;47.520;18.920;2023-02-28T21:37:56;99436.25;;;7.09;48.41
42519;BME280;28147;47.520;18.920;2023-02-28T21:41:22;99427.50;;;7.30;47.96
42519;BME280;28147;47.520;18.920;2023-02-28T21:46:22;99436.75;;;7.04;48.22
42519;BME280;28147;47.520;18.920;2023-02-28T21:50:41;99433.31;;;6.89;49.15
42519;BME280;28147;47.520;18.920;2023-02-28T21:53:07;99439.34;;;7.13;48.55
42519;BME280;28147;47.520;18.920;2023-02-28T21:55:33;99436.13;;;7.17;48.19
42519;BME280;28147;47.520;18.920;2023-02-28T21:57:59;99435.84;;;7.12;48.87
42519;BME280;28147;47.520;18.920;2023-02-28T22:00:24;99413.44;;;6.93;48.86
42519;BME280;28147;47.520;18.920;2023-02-28T22:02:50;99435.66;;;7.14;48.38
42519;BME280;28147;47.520;18.920;2023-02-28T22:05:15;99442.91;;;6.90;49.43
42519;BME280;28147;47.520;18.920;2023-02-28T22:07:43;99433.94;;;7.21;47.98
42519;BME280;28147;47.520;18.920;2023-02-28T22:10:09;99435.31;;;7.17;47.63
42519;BME280;28147;47.520;18.920;2023-02-28T22:12:34;99445.28;;;7.00;48.82
42519;BME280;28147;47.520;18.920;2023-02-28T22:15:00;99446.97;;;7.22;48.65
42519;BME280;28147;47.520;18.920;2023-02-28T22:17:25;99449.25;;;7.25;48.31
42519;BME280;28147;47.520;18.920;2023-02-28T22:19:51;99442.06;;;7.04;48.65
42519;BME280;28147;47.520;18.920;2023-02-28T22:23:46;99447.28;;;7.13;49.11
42519;BME280;28147;47.520;18.920;2023-02-28T22:26:13;99444.22;;;7.30;48.40
42519;BME280;28147;47.520;18.920;2023-02-28T22:28:39;99441.59;;;7.16;48.76
42519;BME280;28147;47.520;18.920;2023-02-28T22:31:26;99445.63;;;7.12;48.65
42519;BME280;28147;47.520;18.920;2023-02-28T22:33:54;99438.22;;;7.07;48.75
42519;BME280;28147;47.520;18.920;2023-02-28T22:36:21;99453.38;;;7.13;48.64
42519;BME280;28147;47.520;18.920;2023-02-28T22:38:48;99450.19;;;7.18;48.59
42519;BME280;28147;47.520;18.920;2023-02-28T22:41:15;99451.44;;;7.22;48.49
42519;BME280;28147;47.520;18.920;2023-02-28T22:46:28;99438.56;;;7.19;48.18
42519;BME280;28147;47.520;18.920;2023-02-28T22:49:23;99451.97;;;7.32;47.73
42519;BME280;28147;47.520;18.920;2023-02-28T22:51:49;99445.63;;;7.12;48.44
42519;BME280;28147;47.520;18.920;2023-02-28T22:54:24;99444.72;;;7.04;48.85
42519;BME280;28147;47.520;18.920;2023-02-28T22:56:50;99437.31;;;7.15;48.04
42519;BME280;28147;47.520;18.920;2023-02-28T22:59:15;99441.59;;;7.16;48.56
42519;BME280;28147;47.520;18.920;2023-02-28T23:01:40;99433.16;;;7.27;47.94
42519;BME280;28147;47.520;18.920;2023-02-28T23:04:09;99435.59;;;7.07;48.74
42519;BME280;28147;47.520;18.920;2023-02-28T23:06:57;99438.06;;;7.09;48.96
42519;BME280;28147;47.520;18.920;2023-02-28T23:09:23;99433.78;;;6.93;49.09
42519;BME280;28147;47.520;18.920;2023-02-28T23:11:49;99437.31;;;7.15;48.49
42519;BME280;28147;47.520;18.920;2023-02-28T23:14:16;99439.25;;;7.06;48.93
42519;BME280;28147;47.520;18.920;2023-02-28T23:16:45;99434.97;;;7.05;49.09
42519;BME280;28147;47.520;18.920;2023-02-28T23:21:38;99432.00;;;7.15;48.88
42519;BME280;28147;47.520;18.920;2023-02-28T23:24:05;99431.09;;;7.07;48.92
42519;BME280;28147;47.520;18.920;2023-02-28T23:26:35;99421.34;;;7.08;48.91
42519;BME280;28147;47.520;18.920;2023-02-28T23:29:37;99428.22;;;7.02;49.32
42519;BME280;28147;47.520;18.920;2023-02-28T23:32:59;99423.09;;;7.01;49.73
42519;BME280;28147;47.520;18.920;2023-02-28T23:35:24;99421.91;;;7.03;49.29
42519;BME280;28147;47.520;18.920;2023-02-28T23:38:51;99417.13;;;7.14;49.00
42519;BME280;28147;47.520;18.920;2023-02-28T23:41:17;99418.97;;;7.13;49.59
42519;BME280;28147;47.520;18.920;2023-02-28T23:43:44;99418.53;;;7.10;49.19
42519;BME280;28147;47.520;18.920;2023-02-28T23:49:55;99424.41;;;6.75;49.84
42519;BME280;28147;47.520;18.920;2023-02-28T23:52:50;99416.16;;;6.70;49.75
42519;BME280;28147;47.520;18.920;2023-02-28T23:55:16;99426.84;;;6.77;49.83
